createdAt,value
2018-11-11T00:01:34.176Z,11.80
2018-11-11T00:04:02.671Z,11.80
2018-11-11T00:06:31.167Z,11.80
2018-11-11T00:08:59.642Z,11.70
2018-11-11T00:11:28.143Z,11.80
2018-11-11T00:13:56.630Z,11.80
2018-11-11T00:16:25.115Z,11.70
2018-11-11T00:18:53.607Z,11.70
2018-11-11T00:21:22.104Z,11.70
2018-11-11T00:23:50.596Z,11.70
2018-11-11T00:26:19.087Z,11.70
2018-11-11T00:28:47.704Z,11.70
2018-11-11T00:31:16.082Z,11.70
2018-11-11T00:33:44.580Z,11.70
2018-11-11T00:36:13.077Z,11.70
2018-11-11T00:38:41.580Z,11.70
2018-11-11T00:41:10.067Z,11.70
2018-11-11T00:43:38.855Z,11.70
2018-11-11T00:46:07.339Z,11.70
2018-11-11T00:48:35.819Z,11.70
2018-11-11T00:51:04.300Z,11.70
2018-11-11T00:53:32.791Z,11.70
2018-11-11T00:56:01.300Z,11.70
2018-11-11T00:58:29.796Z,11.70
2018-11-11T01:00:58.295Z,11.70
2018-11-11T01:03:26.799Z,11.70
2018-11-11T01:05:55.283Z,11.70
2018-11-11T01:08:23.763Z,11.70
2018-11-11T01:10:52.264Z,11.70
2018-11-11T01:13:21.055Z,11.70
2018-11-11T01:15:49.564Z,11.60
2018-11-11T01:18:18.048Z,11.60
2018-11-11T01:20:46.531Z,11.60
2018-11-11T01:23:15.028Z,11.60
2018-11-11T01:25:43.523Z,11.60
2018-11-11T01:28:12.019Z,11.60
2018-11-11T01:30:40.785Z,11.60
2018-11-11T01:33:09.283Z,11.60
2018-11-11T01:35:37.779Z,11.60
2018-11-11T01:38:06.705Z,11.60
2018-11-11T01:40:35.198Z,11.60
2018-11-11T01:43:03.693Z,11.60
2018-11-11T01:45:32.531Z,11.60
2018-11-11T01:48:01.024Z,11.60
2018-11-11T01:50:29.502Z,11.60
2018-11-11T01:52:57.992Z,11.60
2018-11-11T01:55:26.493Z,11.60
2018-11-11T01:57:55.007Z,11.60
2018-11-11T02:00:23.523Z,11.60
2018-11-11T02:02:52.496Z,11.60
2018-11-11T02:05:20.987Z,11.60
2018-11-11T02:07:49.642Z,11.60
2018-11-11T02:10:18.146Z,11.60
2018-11-11T02:12:47.313Z,11.60
2018-11-11T02:15:16.919Z,11.60
2018-11-11T02:17:45.422Z,11.60
2018-11-11T02:20:15.858Z,11.60
2018-11-11T02:22:45.727Z,11.60
2018-11-11T02:25:14.215Z,11.60
2018-11-11T02:27:42.807Z,11.60
2018-11-11T02:30:14.301Z,11.60
2018-11-11T02:32:43.363Z,11.60
2018-11-11T02:35:12.255Z,11.60
2018-11-11T02:37:41.322Z,11.60
2018-11-11T02:40:12.381Z,11.60
2018-11-11T02:42:40.872Z,11.60
2018-11-11T02:45:11.382Z,11.60
2018-11-11T02:47:39.887Z,11.60
2018-11-11T02:50:10.366Z,11.60
2018-11-11T02:52:39.094Z,11.70
2018-11-11T02:55:08.204Z,11.60
2018-11-11T02:57:37.607Z,11.60
2018-11-11T03:00:08.266Z,11.60
2018-11-11T03:02:36.759Z,11.70
2018-11-11T03:05:05.636Z,11.70
2018-11-11T03:07:34.136Z,11.70
2018-11-11T03:10:02.649Z,11.60
2018-11-11T03:12:31.147Z,11.70
2018-11-11T03:15:00.010Z,11.70
2018-11-11T03:17:28.508Z,11.70
2018-11-11T03:19:57.591Z,11.70
2018-11-11T03:22:26.097Z,11.70
2018-11-11T03:24:55.139Z,11.70
2018-11-11T03:27:23.636Z,11.70
2018-11-11T03:29:52.128Z,11.70
2018-11-11T03:32:20.879Z,11.70
2018-11-11T03:34:49.404Z,11.70
2018-11-11T03:37:17.899Z,11.70
2018-11-11T03:39:46.387Z,11.70
2018-11-11T03:42:14.870Z,11.70
2018-11-11T03:44:43.476Z,11.70
2018-11-11T03:47:11.979Z,11.70
2018-11-11T03:49:40.475Z,11.70
2018-11-11T03:52:08.971Z,11.70
2018-11-11T03:54:37.471Z,11.70
2018-11-11T03:57:05.975Z,11.80
2018-11-11T03:59:34.467Z,11.80
2018-11-11T04:02:02.956Z,11.80
2018-11-11T04:04:31.459Z,11.70
2018-11-11T04:06:59.948Z,11.80
2018-11-11T04:09:28.459Z,11.80
2018-11-11T04:11:56.960Z,11.80
2018-11-11T04:14:25.456Z,11.80
2018-11-11T04:16:53.948Z,11.80
2018-11-11T04:19:22.463Z,11.80
2018-11-11T04:21:50.989Z,11.80
2018-11-11T04:24:19.495Z,11.80
2018-11-11T04:26:47.988Z,11.80
2018-11-11T04:29:16.481Z,11.80
2018-11-11T04:31:44.965Z,11.80
2018-11-11T04:34:13.576Z,11.80
2018-11-11T04:36:42.102Z,11.80
2018-11-11T04:39:11.968Z,11.80
2018-11-11T04:41:40.430Z,11.80
2018-11-11T04:44:09.411Z,11.80
2018-11-11T04:46:38.316Z,11.80
2018-11-11T04:49:06.804Z,11.80
2018-11-11T04:51:35.303Z,11.70
2018-11-11T04:54:03.807Z,11.70
2018-11-11T04:56:32.292Z,11.80
2018-11-11T04:59:00.796Z,11.70
2018-11-11T05:01:29.300Z,11.80
2018-11-11T05:03:57.986Z,11.70
2018-11-11T05:06:26.484Z,11.70
2018-11-11T05:08:54.975Z,11.70
2018-11-11T05:11:23.464Z,11.70
2018-11-11T05:13:51.964Z,11.70
2018-11-11T05:16:20.443Z,11.70
2018-11-11T05:18:49.304Z,11.70
2018-11-11T05:21:17.784Z,11.70
2018-11-11T05:23:46.275Z,11.70
2018-11-11T05:26:15.247Z,11.70
2018-11-11T05:28:43.911Z,11.70
2018-11-11T05:31:12.732Z,11.70
2018-11-11T05:33:41.267Z,11.70
2018-11-11T05:36:09.759Z,11.70
2018-11-11T05:38:38.251Z,11.70
2018-11-11T05:41:06.770Z,11.70
2018-11-11T05:43:35.263Z,11.70
2018-11-11T05:46:03.783Z,11.70
2018-11-11T05:48:32.266Z,11.70
2018-11-11T05:51:00.760Z,11.70
2018-11-11T05:53:29.254Z,11.80
2018-11-11T05:55:57.743Z,11.80
2018-11-11T05:58:26.230Z,11.80
2018-11-11T06:00:54.720Z,11.80
2018-11-11T06:03:24.158Z,11.80
2018-11-11T06:05:52.643Z,11.80
2018-11-11T06:08:21.135Z,11.80
2018-11-11T06:10:49.655Z,11.80
2018-11-11T06:13:18.151Z,11.80
2018-11-11T06:15:46.650Z,11.80
2018-11-11T06:18:15.146Z,11.80
2018-11-11T06:20:43.628Z,11.90
2018-11-11T06:23:12.117Z,11.90
2018-11-11T06:25:40.619Z,11.90
2018-11-11T06:28:09.104Z,11.90
2018-11-11T06:30:37.600Z,11.90
2018-11-11T06:33:06.416Z,11.90
2018-11-11T06:35:34.911Z,12.00
2018-11-11T06:38:03.395Z,12.00
2018-11-11T06:40:31.887Z,12.00
2018-11-11T06:43:00.380Z,12.00
2018-11-11T06:45:28.867Z,12.10
2018-11-11T06:47:57.430Z,12.10
2018-11-11T06:50:25.870Z,12.10
2018-11-11T06:52:54.355Z,12.10
2018-11-11T06:55:22.839Z,12.10
2018-11-11T06:57:51.471Z,12.10
2018-11-11T07:00:19.872Z,12.10
2018-11-11T07:02:59.616Z,12.20
2018-11-11T07:05:28.104Z,12.20
2018-11-11T07:07:56.925Z,12.20
2018-11-11T07:10:25.427Z,12.20
2018-11-11T07:12:54.211Z,12.20
2018-11-11T07:15:22.908Z,12.20
2018-11-11T07:17:51.399Z,12.20
2018-11-11T07:20:19.897Z,12.20
2018-11-11T07:22:48.397Z,12.20
2018-11-11T07:25:16.898Z,12.10
2018-11-11T07:27:45.409Z,12.10
2018-11-11T07:30:13.907Z,12.10
2018-11-11T07:32:42.388Z,12.10
2018-11-11T07:35:11.467Z,12.10
2018-11-11T07:37:40.147Z,12.10
2018-11-11T07:40:10.953Z,12.10
2018-11-11T07:42:39.443Z,12.10
2018-11-11T07:45:07.935Z,12.10
2018-11-11T07:47:36.726Z,12.20
2018-11-11T07:50:06.848Z,12.20
2018-11-11T07:52:35.613Z,12.20
2018-11-11T07:55:04.185Z,12.20
2018-11-11T07:57:32.625Z,12.30
2018-11-11T08:00:01.117Z,12.30
2018-11-11T08:02:29.611Z,12.30
2018-11-11T08:04:58.099Z,12.40
2018-11-11T08:07:26.641Z,12.40
2018-11-11T08:09:55.095Z,12.40
2018-11-11T08:12:23.859Z,12.50
2018-11-11T08:14:52.367Z,12.50
2018-11-11T08:17:20.872Z,12.50
2018-11-11T08:19:49.364Z,12.50
2018-11-11T08:22:17.852Z,12.50
2018-11-11T08:24:46.340Z,12.50
2018-11-11T08:27:14.827Z,12.50
2018-11-11T08:29:43.320Z,12.50
2018-11-11T08:32:11.873Z,12.50
2018-11-11T08:34:40.313Z,12.60
2018-11-11T08:37:08.802Z,12.60
2018-11-11T08:39:37.641Z,12.70
2018-11-11T08:42:06.142Z,12.70
2018-11-11T08:44:34.641Z,12.70
2018-11-11T08:47:03.132Z,12.80
2018-11-11T08:49:31.627Z,12.80
2018-11-11T08:52:00.124Z,12.90
2018-11-11T08:54:28.634Z,12.90
2018-11-11T08:56:57.117Z,13.10
2018-11-11T08:59:26.251Z,13.10
2018-11-11T09:01:54.758Z,13.20
2018-11-11T09:04:23.246Z,13.20
2018-11-11T09:06:51.727Z,13.20
2018-11-11T09:09:20.318Z,13.20
2018-11-11T09:11:48.824Z,13.10
2018-11-11T09:14:17.687Z,13.20
2018-11-11T09:16:46.184Z,13.20
2018-11-11T09:19:14.952Z,13.20
2018-11-11T09:21:44.022Z,13.20
2018-11-11T09:24:12.600Z,13.20
2018-11-11T09:26:41.376Z,13.20
2018-11-11T09:29:10.355Z,13.20
2018-11-11T09:31:39.204Z,13.20
2018-11-11T09:34:07.695Z,13.20
2018-11-11T09:36:36.207Z,13.20
2018-11-11T09:39:07.678Z,13.20
2018-11-11T09:41:36.303Z,13.20
2018-11-11T09:44:05.228Z,13.20
2018-11-11T09:46:33.724Z,13.20
2018-11-11T09:49:02.224Z,13.10
2018-11-11T09:51:30.955Z,13.20
2018-11-11T09:53:59.478Z,13.20
2018-11-11T09:56:27.962Z,13.10
2018-11-11T09:58:56.460Z,13.10
2018-11-11T10:01:25.340Z,13.10
2018-11-11T10:03:59.491Z,13.10
2018-11-11T10:06:33.332Z,13.10
2018-11-11T10:09:07.355Z,13.10
2018-11-11T10:11:41.025Z,13.00
2018-11-11T10:14:19.331Z,13.00
2018-11-11T10:18:57.459Z,13.00
2018-11-11T10:23:34.765Z,13.00
2018-11-11T10:26:41.104Z,12.90
2018-11-11T10:29:21.395Z,12.90
2018-11-11T10:31:54.867Z,12.90
2018-11-11T10:34:28.775Z,12.90
2018-11-11T10:37:03.299Z,12.90
2018-11-11T10:39:42.739Z,12.90
2018-11-11T10:42:16.535Z,12.90
2018-11-11T10:45:20.918Z,12.90
2018-11-11T10:48:09.196Z,13.00
2018-11-11T10:50:41.996Z,13.00
2018-11-11T10:53:10.487Z,13.00
2018-11-11T10:55:39.207Z,13.10
2018-11-11T10:58:07.703Z,13.10
2018-11-11T11:00:41.756Z,13.10
2018-11-11T11:03:15.796Z,13.10
2018-11-11T11:05:44.295Z,13.20
2018-11-11T11:08:12.784Z,13.20
2018-11-11T11:10:41.287Z,13.20
2018-11-11T11:13:09.791Z,13.20
2018-11-11T11:15:38.302Z,13.20
2018-11-11T11:18:07.151Z,13.20
2018-11-11T11:20:35.657Z,13.20
2018-11-11T11:23:04.421Z,13.20
2018-11-11T11:25:32.879Z,13.20
2018-11-11T11:28:01.379Z,13.30
2018-11-11T11:30:29.871Z,13.30
2018-11-11T11:32:58.355Z,13.30
2018-11-11T11:35:26.866Z,13.30
2018-11-11T11:37:55.350Z,13.30
2018-11-11T11:40:23.831Z,13.30
2018-11-11T11:42:52.590Z,13.30
2018-11-11T11:45:21.076Z,13.30
2018-11-11T11:47:49.564Z,13.30
2018-11-11T11:50:18.113Z,13.30
2018-11-11T11:52:46.571Z,13.30
2018-11-11T11:55:15.063Z,13.30
2018-11-11T11:57:44.153Z,13.30
2018-11-11T12:00:13.999Z,13.40
2018-11-11T12:02:42.487Z,13.40
2018-11-11T12:05:10.989Z,13.30
2018-11-11T12:07:39.491Z,13.40
2018-11-11T12:10:09.674Z,13.30
2018-11-11T12:12:38.684Z,13.30
2018-11-11T12:15:08.469Z,13.40
2018-11-11T12:17:37.512Z,13.30
2018-11-11T12:20:06.896Z,13.30
2018-11-11T12:22:35.383Z,13.30
2018-11-11T12:25:03.931Z,13.30
2018-11-11T12:27:32.424Z,13.30
2018-11-11T12:30:00.911Z,13.30
2018-11-11T12:32:29.409Z,13.30
2018-11-11T12:34:58.459Z,13.30
2018-11-11T12:37:26.908Z,13.30
2018-11-11T12:39:55.548Z,13.30
2018-11-11T12:42:23.909Z,13.30
2018-11-11T12:44:52.437Z,13.30
2018-11-11T12:47:20.909Z,13.20
2018-11-11T12:49:49.403Z,13.30
2018-11-11T12:52:17.889Z,13.30
2018-11-11T12:54:47.059Z,13.20
2018-11-11T12:57:15.543Z,13.20
2018-11-11T12:59:44.016Z,13.20
2018-11-11T13:02:12.504Z,13.20
2018-11-11T13:04:41.056Z,13.20
2018-11-11T13:07:09.512Z,13.20
2018-11-11T13:09:38.007Z,13.20
2018-11-11T13:12:06.592Z,13.20
2018-11-11T13:14:34.999Z,13.20
2018-11-11T13:17:03.500Z,13.20
2018-11-11T13:19:32.666Z,13.20
2018-11-11T13:22:01.565Z,13.20
2018-11-11T13:24:30.598Z,13.20
2018-11-11T13:26:59.092Z,13.10
2018-11-11T13:29:27.615Z,13.10
2018-11-11T13:31:56.188Z,13.10
2018-11-11T13:34:24.644Z,13.10
2018-11-11T13:36:53.135Z,13.10
2018-11-11T13:39:21.628Z,13.10
2018-11-11T13:41:50.119Z,13.10
2018-11-11T13:44:18.606Z,13.10
2018-11-11T13:46:47.111Z,13.10
2018-11-11T13:49:15.615Z,13.10
2018-11-11T13:51:44.155Z,13.10
2018-11-11T13:54:12.646Z,13.10
2018-11-11T13:56:41.354Z,13.10
2018-11-11T13:59:09.852Z,13.10
2018-11-11T14:01:38.359Z,13.10
2018-11-11T14:04:06.839Z,13.10
2018-11-11T14:06:35.353Z,13.10
2018-11-11T14:09:04.488Z,13.10
2018-11-11T14:11:32.979Z,13.10
2018-11-11T14:14:01.480Z,13.10
2018-11-11T14:16:29.987Z,13.10
2018-11-11T14:18:58.682Z,13.00
2018-11-11T14:21:26.987Z,13.00
2018-11-11T14:23:55.689Z,13.00
2018-11-11T14:26:24.185Z,13.00
2018-11-11T14:28:52.667Z,13.00
2018-11-11T14:31:21.387Z,13.00
2018-11-11T14:33:50.376Z,13.00
2018-11-11T14:36:18.869Z,13.00
2018-11-11T14:38:47.356Z,13.00
2018-11-11T14:41:15.856Z,13.00
2018-11-11T14:43:44.360Z,13.00
2018-11-11T14:46:12.927Z,13.00
2018-11-11T14:48:41.395Z,13.00
2018-11-11T14:51:10.208Z,13.00
2018-11-11T14:53:38.695Z,12.90
2018-11-11T14:56:07.616Z,13.00
2018-11-11T14:58:36.423Z,13.00
2018-11-11T15:01:05.596Z,12.90
2018-11-11T15:03:34.085Z,12.90
2018-11-11T15:06:02.948Z,12.90
2018-11-11T15:08:31.444Z,12.90
2018-11-11T15:10:59.939Z,12.90
2018-11-11T15:13:28.432Z,12.90
2018-11-11T15:15:56.924Z,12.90
2018-11-11T15:18:25.691Z,12.90
2018-11-11T15:20:54.411Z,12.90
2018-11-11T15:23:22.708Z,12.90
2018-11-11T15:25:51.186Z,12.90
2018-11-11T15:28:20.024Z,12.90
2018-11-11T15:30:48.645Z,12.90
2018-11-11T15:33:17.283Z,12.80
2018-11-11T15:35:45.773Z,12.80
2018-11-11T15:38:14.278Z,12.80
2018-11-11T15:40:42.773Z,12.80
2018-11-11T15:43:11.431Z,12.80
2018-11-11T15:45:40.255Z,12.80
2018-11-11T15:48:08.751Z,12.80
2018-11-11T15:50:37.774Z,12.80
2018-11-11T15:53:07.674Z,12.80
2018-11-11T15:55:37.620Z,12.80
2018-11-11T15:58:06.736Z,12.80
2018-11-11T16:00:37.491Z,12.80
2018-11-11T16:03:06.183Z,12.70
2018-11-11T16:05:34.682Z,12.70
2018-11-11T16:08:03.425Z,12.70
2018-11-11T16:10:32.787Z,12.70
2018-11-11T16:13:01.479Z,12.70
2018-11-11T16:15:31.738Z,12.70
2018-11-11T16:18:02.052Z,12.70
2018-11-11T16:20:31.559Z,12.70
2018-11-11T16:23:01.148Z,12.70
2018-11-11T16:25:29.650Z,12.70
2018-11-11T16:27:58.151Z,12.70
2018-11-11T16:30:30.163Z,12.70
2018-11-11T16:32:59.563Z,12.70
2018-11-11T16:35:29.169Z,12.70
2018-11-11T16:37:58.474Z,12.70
2018-11-11T16:40:28.707Z,12.70
2018-11-11T16:42:57.679Z,12.70
2018-11-11T16:45:28.244Z,12.70
2018-11-11T16:47:57.263Z,12.70
2018-11-11T16:50:28.059Z,12.70
2018-11-11T16:52:58.031Z,12.70
2018-11-11T16:55:27.932Z,12.70
2018-11-11T16:57:56.387Z,12.70
2018-11-11T17:00:28.315Z,12.70
2018-11-11T17:02:57.919Z,12.70
2018-11-11T17:05:28.105Z,12.60
2018-11-11T17:07:56.856Z,12.60
2018-11-11T17:10:28.487Z,12.60
2018-11-11T17:12:58.307Z,12.60
2018-11-11T17:15:28.715Z,12.60
2018-11-11T17:17:57.226Z,12.60
2018-11-11T17:20:26.504Z,12.60
2018-11-11T17:22:56.209Z,12.60
2018-11-11T17:25:25.888Z,12.60
2018-11-11T17:27:54.670Z,12.60
2018-11-11T17:30:28.204Z,12.60
2018-11-11T17:32:57.521Z,12.60
2018-11-11T17:35:26.227Z,12.60
2018-11-11T17:37:55.083Z,12.60
2018-11-11T17:40:27.244Z,12.60
2018-11-11T17:42:56.847Z,12.60
2018-11-11T17:45:25.343Z,12.60
2018-11-11T17:47:54.532Z,12.60
2018-11-11T17:50:27.507Z,12.60
2018-11-11T17:52:56.039Z,12.60
2018-11-11T17:55:25.550Z,12.60
2018-11-11T17:57:54.046Z,12.60
2018-11-11T18:00:23.824Z,12.60
2018-11-11T18:02:52.804Z,12.60
2018-11-11T18:05:22.227Z,12.60
2018-11-11T18:07:50.760Z,12.60
2018-11-11T18:10:20.685Z,12.60
2018-11-11T18:12:49.367Z,12.50
2018-11-11T18:15:20.777Z,12.50
2018-11-11T18:17:49.275Z,12.50
2018-11-11T18:20:20.934Z,12.50
2018-11-11T18:22:50.256Z,12.50
2018-11-11T18:25:18.787Z,12.50
2018-11-11T18:27:47.360Z,12.50
2018-11-11T18:30:19.821Z,12.50
2018-11-11T18:32:48.991Z,12.50
2018-11-11T18:35:18.267Z,12.50
2018-11-11T18:37:47.312Z,12.50
2018-11-11T18:40:17.606Z,12.50
2018-11-11T18:42:46.101Z,12.50
2018-11-11T18:45:17.026Z,12.50
2018-11-11T18:47:46.637Z,12.50
2018-11-11T18:50:18.690Z,12.50
2018-11-11T18:52:47.383Z,12.50
2018-11-11T18:55:15.867Z,12.50
2018-11-11T18:57:45.174Z,12.50
2018-11-11T19:00:16.606Z,12.50
2018-11-11T19:02:46.127Z,12.50
2018-11-11T19:05:16.032Z,12.50
2018-11-11T19:07:45.080Z,12.40
2018-11-11T19:10:15.517Z,12.40
2018-11-11T19:12:45.202Z,12.40
2018-11-11T19:15:14.876Z,12.40
2018-11-11T19:17:44.406Z,12.40
2018-11-11T19:20:14.422Z,12.40
2018-11-11T19:22:43.235Z,12.40
2018-11-11T19:25:13.867Z,12.40
2018-11-11T19:27:43.751Z,12.40
2018-11-11T19:30:13.419Z,12.40
2018-11-11T19:32:42.623Z,12.40
2018-11-11T19:35:12.236Z,12.40
2018-11-11T19:37:40.927Z,12.40
2018-11-11T19:40:12.016Z,12.40
2018-11-11T19:42:41.061Z,12.40
2018-11-11T19:45:11.300Z,12.40
2018-11-11T19:47:40.910Z,12.30
2018-11-11T19:50:11.879Z,12.30
2018-11-11T19:52:42.057Z,12.30
2018-11-11T19:55:11.557Z,12.30
2018-11-11T19:57:40.247Z,12.30
2018-11-11T20:00:11.415Z,12.30
2018-11-11T20:02:40.783Z,12.30
2018-11-11T20:05:11.499Z,12.30
2018-11-11T20:07:40.976Z,12.30
2018-11-11T20:10:11.396Z,12.30
2018-11-11T20:12:40.364Z,12.30
2018-11-11T20:15:12.107Z,12.30
2018-11-11T20:17:41.016Z,12.30
2018-11-11T20:20:12.848Z,12.30
2018-11-11T20:22:41.599Z,12.30
2018-11-11T20:25:11.452Z,12.30
2018-11-11T20:27:40.739Z,12.30
2018-11-11T20:30:11.539Z,12.20
2018-11-11T20:32:40.999Z,12.20
2018-11-11T20:35:11.006Z,12.20
2018-11-11T20:37:39.519Z,12.20
2018-11-11T20:40:10.027Z,12.20
2018-11-11T20:42:38.852Z,12.20
2018-11-11T20:45:08.428Z,12.20
2018-11-11T20:47:37.572Z,12.20
2018-11-11T20:50:08.283Z,12.20
2018-11-11T20:52:36.798Z,12.20
2018-11-11T20:55:06.747Z,12.20
2018-11-11T20:57:35.728Z,12.20
2018-11-11T21:00:05.345Z,12.20
2018-11-11T21:02:34.158Z,12.20
2018-11-11T21:05:02.652Z,12.20
2018-11-11T21:07:31.367Z,12.20
2018-11-11T21:09:59.864Z,12.20
2018-11-11T21:12:28.354Z,12.20
2018-11-11T21:14:56.851Z,12.20
2018-11-11T21:17:25.429Z,12.20
2018-11-11T21:19:53.872Z,12.10
2018-11-11T21:22:22.371Z,12.20
2018-11-11T21:24:50.873Z,12.10
2018-11-11T21:27:19.367Z,12.20
2018-11-11T21:29:47.888Z,12.10
2018-11-11T21:32:16.405Z,12.10
2018-11-11T21:34:44.897Z,12.10
2018-11-11T21:37:13.400Z,12.10
2018-11-11T21:39:41.904Z,12.10
2018-11-11T21:42:10.400Z,12.10
2018-11-11T21:44:38.941Z,12.10
2018-11-11T21:47:07.411Z,12.10
2018-11-11T21:49:35.915Z,12.10
2018-11-11T21:52:04.939Z,12.10
2018-11-11T21:54:33.460Z,12.10
2018-11-11T21:57:02.323Z,12.10
2018-11-11T21:59:30.804Z,12.10
2018-11-11T22:01:59.333Z,12.10
2018-11-11T22:04:27.818Z,12.10
2018-11-11T22:06:56.443Z,12.10
2018-11-11T22:09:24.951Z,12.10
2018-11-11T22:11:53.444Z,12.00
2018-11-11T22:14:21.940Z,12.00
2018-11-11T22:16:50.423Z,12.10
2018-11-11T22:19:18.929Z,12.00
2018-11-11T22:21:47.423Z,12.00
2018-11-11T22:24:15.924Z,12.00
2018-11-11T22:26:44.415Z,12.00
2018-11-11T22:29:12.894Z,12.00
2018-11-11T22:31:41.400Z,12.00
2018-11-11T22:34:10.195Z,12.00
2018-11-11T22:36:38.680Z,12.00
2018-11-11T22:39:09.328Z,12.00
2018-11-11T22:41:38.352Z,12.00
2018-11-11T22:44:07.647Z,12.00
2018-11-11T22:46:36.339Z,12.00
2018-11-11T22:49:05.299Z,12.00
2018-11-11T22:51:33.791Z,12.00
2018-11-11T22:54:02.399Z,12.00
2018-11-11T22:56:31.016Z,12.00
2018-11-11T22:58:59.515Z,12.00
2018-11-11T23:01:28.311Z,12.00
2018-11-11T23:03:56.819Z,12.00
2018-11-11T23:06:25.323Z,12.00
2018-11-11T23:08:53.822Z,12.00
2018-11-11T23:11:22.319Z,11.90
2018-11-11T23:13:50.824Z,11.90
2018-11-11T23:16:19.588Z,11.90
2018-11-11T23:18:48.088Z,11.90
2018-11-11T23:21:16.583Z,11.90
2018-11-11T23:23:45.102Z,11.90
2018-11-11T23:26:13.749Z,11.90
2018-11-11T23:28:42.239Z,11.90
2018-11-11T23:31:10.731Z,11.90
2018-11-11T23:33:39.215Z,11.90
2018-11-11T23:36:07.722Z,11.90
2018-11-11T23:38:36.207Z,11.90
2018-11-11T23:41:05.261Z,11.90
2018-11-11T23:43:33.755Z,11.90
2018-11-11T23:46:02.255Z,11.90
2018-11-11T23:48:30.752Z,11.90
2018-11-11T23:50:59.416Z,11.90
2018-11-11T23:53:27.906Z,11.90
2018-11-11T23:55:56.388Z,11.90
2018-11-11T23:58:24.880Z,11.90
